Airfield :
LOGIN :

Register | Disclaimer

   EN    FR    IT 

 










Legend :    VFR   Marginal VFR   IFR   Intensive IFR   Very Intensive IFR
Visi :
Ceiling :
>= 8 km
>= 3000ft
5 to 8 km
1000 to 3000 ft
1500m to 5 km
500 to 1000 ft
800 to 1500m
200 to 500 ft
< 800m
< 200 ft
Symbols :   Thunderstorms  Fog  Heavy snow  Heavy precipitations  Wind > 20 kt
SIGMETs :     Misc.  Thunderstorms  Icing  Turbulence  Mountain Waves  Volcanic Ashes







- Airport Elevation : 90 ft
- IATA code : NTE
- Download approach charts


LFRS - Nantes

CURRENT METAR :
  • 180730Z AUTO 25016KT 7000 -RA OVC008 11/10 Q1014 TEMPO 25020G30KT 3000 -DZRA BKN004

EXPIRED METARs :
  • 180700Z AUTO 25015KT 5000 BR OVC006 11/10 Q1014 TEMPO 25020G30KT BKN004
  • 180630Z AUTO 25016G27KT 4200 BR OVC008 11/10 Q1014 TEMPO BKN004
  • 180600Z AUTO 25015KT 220V280 9999 OVC009 11/10 Q1014 TEMPO 25020G30KT 3000 -DZRA BKN004
  • 180530Z AUTO 25018G31KT 9999 OVC008 10/10 Q1014 TEMPO 3000 -DZRA BKN004
  • 180500Z AUTO 25017G28KT 220V280 9999 OVC008 10/10 Q1014 TEMPO 3000 -RADZ BKN004

TAF TAF LFRS
Valid from the 18 at 06:00 until the 19 at 12:00 UTC


180500Z 1806/1912 26015G25KT 9999 BKN007
TEMPO 1806/1810 25020G30KT
TEMPO 1806/1814 3000 -DZRA BKN004
BECMG 1814/1816 BKN020
BECMG 1818/1820 27008KT
TEMPO 1903/1912 4500 -SHRA BKN020TCU SCT030CB
PROB40
TEMPO 1905/1907 2500 SHGS SCT005 BKN030CB
ATIS : +33 2 40 05 12 74
No reported NOTAMs for that airfield.
1 SIGMET reported for the Brest FIR (LFRR) :
 
Severe turbulence
LFRR SIGMET 2 VALID 180600/180900 LFPW
LFRR BREST FIR/UIR SEV TURB FCST N OF LINE N4715 W00015 - N4645 W00800 SFC/FL060 STNR NC=



MET'MAP, your aeronautical weather chart ! - Copyright ORBIFLY December 2007 - Disclaimer

ORBIFLY MET'MAP TEAM :

Programming & Development : Alexandra Zaïnal
Concept & Development : Baudouin d'Aumeries
Co-Development & Prog : Marc-Olivier Méhu
Technical & hardware support : Manuel Goepfert

Contact : metmap@orbifly.com




SOURCES & CREDITS :

   NOAA